Wednesday, October 17, 2018, 12:30 PM EDT
Back to Local

KPSM, Pease Air Force Base / Portsmouth

Location: Portsmouth, NH, United States Lat: 43.083
Local Time: 12:30 PM EDT (16:30 GMT) Lon: -70.817
Time Zone: US/Eastern Elev: 101 ft

Show me the last for .
Show Decoded

2018-10-17 11:56 METAR KPSM 171556Z 28009KT 10SM FEW050 14/03 A2977 RMK AO2A SLP084 T01380030 =
2018-10-17 10:56 METAR KPSM 171456Z 23006KT 10SM OVC060 10/02 A2980 RMK AO2A SLP094 T01010024
                 58017 =
2018-10-17 09:56 METAR KPSM 171356Z 24007KT 10SM FEW060 BKN090 09/02 A2983 RMK AO2A SLP104
                 T00850023 =
2018-10-17 08:56 METAR KPSM 171256Z 24008KT 10SM SCT060 BKN080 07/02 A2985 RMK AO2A SLP111
                 T00730024 =
2018-10-17 07:56 METAR KPSM 171156Z 24007KT 10SM SCT095 BKN130 07/02 A2985 RMK AO2A SLP111
                 T00680019 10068 20034 57020 =
2018-10-17 06:56 METAR KPSM 171056Z 20008KT 10SM BKN095 BKN130 05/02 A2986 RMK AO2A SLP114
                 T00510021 =
2018-10-17 05:56 METAR KPSM 170956Z 21006KT 10SM OVC095 05/02 A2989 RMK AO2A SLP124 T00540021 =
2018-10-17 04:56 METAR KPSM 170856Z 20007KT 10SM BKN100 05/02 A2991 RMK AO2A SLP131 T00490019
                 57013 =
2018-10-17 03:56 METAR KPSM 170756Z 19004KT 10SM BKN100 04/01 A2993 RMK AO2A SLP138 T00370012 =
2018-10-17 02:56 METAR KPSM 170656Z 22004KT 10SM FEW100 04/02 A2993 RMK AO2A SLP138 T00420016 =
2018-10-17 01:56 METAR KPSM 170556Z 21003KT 10SM CLR 05/01 A2995 RMK AO2A SLP145 T00450008 10086
                 20041 58009 =
2018-10-17 00:56 METAR KPSM 170456Z 21005KT 10SM FEW250 05/01 A2996 RMK AO2A SLP148 T00460007
                 401410046 =
2018-10-16 23:56 METAR KPSM 170356Z 20004KT 10SM BKN250 05/01 A2998 RMK AO2A SLP155 T00530007 =
2018-10-16 22:56 METAR KPSM 170256Z 25003KT 10SM BKN250 07/01 A2998 RMK AO2A SLP155 T00670010
                 51005 =
2018-10-16 21:56 METAR KPSM 170156Z 21003KT 10SM BKN250 07/01 A2998 RMK AO2A SLP154 T00700011 =
2018-10-16 20:56 METAR KPSM 170056Z 24005KT 10SM BKN250 08/01 A2997 RMK AO2A SLP151 T00800009 =
2018-10-16 19:56 METAR KPSM 162356Z 21006KT 10SM FEW250 09/01 A2996 RMK AO2A SLP148 T00870007
                 10141 20087 52011 =
2018-10-16 18:56 METAR KPSM 162256Z 22003KT 10SM FEW250 09/01 A2996 RMK AO2A SLP148 T00930005 =
2018-10-16 17:56 METAR KPSM 162156Z 25005KT 10SM FEW250 11/00 A2994 RMK AO2A SLP141 T01120000 =
2018-10-16 16:56 METAR KPSM 162056Z 27009KT 10SM FEW250 13/M03 A2993 RMK AO2A SLP138 T01321027
                 55002 =
2018-10-16 15:56 METAR KPSM 161956Z 25010G18KT 10SM FEW250 14/M03 A2993 RMK AO2A SLP138 T01361028
                 =
2018-10-16 14:56 METAR KPSM 161856Z 28010G21KT 10SM FEW060 FEW250 14/M03 A2993 RMK AO2A SLP138
                 T01381026 =
2018-10-16 13:56 METAR KPSM 161756Z 25009G17KT 10SM FEW200 14/M01 A2994 RMK AO2A SLP141 T01371015
                 10139 20071 58007 =
2018-10-16 12:56 METAR KPSM 161656Z 25013G17KT 10SM FEW200 13/M01 A2995 RMK AO2A SLP144 T01331011
                 =

Support USWX by starting your Amazon purchase here.